sensor_id;sensor_type;location;lat;lon;timestamp;pressure;altitude;pressure_sealevel;temperature;humidity
36664;BME280;53333;51.976;20.144;2023-03-05T00:00:14;99803.59;;;-1.28;56.92
36664;BME280;53333;51.976;20.144;2023-03-05T00:02:48;99799.28;;;-1.32;56.94
36664;BME280;53333;51.976;20.144;2023-03-05T00:05:20;99799.28;;;-1.35;56.90
36664;BME280;53333;51.976;20.144;2023-03-05T00:07:53;99801.03;;;-1.39;57.03
36664;BME280;53333;51.976;20.144;2023-03-05T00:10:26;99801.94;;;-1.41;57.06
36664;BME280;53333;51.976;20.144;2023-03-05T00:13:00;99804.56;;;-1.44;57.04
36664;BME280;53333;51.976;20.144;2023-03-05T00:15:33;99796.72;;;-1.49;57.06
36664;BME280;53333;51.976;20.144;2023-03-05T00:18:11;99790.63;;;-1.50;57.07
36664;BME280;53333;51.976;20.144;2023-03-05T00:20:44;99784.50;;;-1.53;57.06
36664;BME280;53333;51.976;20.144;2023-03-05T00:23:17;99781.94;;;-1.56;57.01
36664;BME280;53333;51.976;20.144;2023-03-05T00:25:50;99775.81;;;-1.60;57.07
36664;BME280;53333;51.976;20.144;2023-03-05T00:28:24;99774.09;;;-1.61;57.10
36664;BME280;53333;51.976;20.144;2023-03-05T00:30:58;99775.81;;;-1.61;57.05
36664;BME280;53333;51.976;20.144;2023-03-05T00:33:31;99770.59;;;-1.65;57.03
36664;BME280;53333;51.976;20.144;2023-03-05T00:36:04;99773.22;;;-1.66;56.97
36664;BME280;53333;51.976;20.144;2023-03-05T00:38:37;99767.13;;;-1.68;56.97
36664;BME280;53333;51.976;20.144;2023-03-05T00:41:10;99762.81;;;-1.71;56.97
36664;BME280;53333;51.976;20.144;2023-03-05T00:43:44;99772.41;;;-1.73;57.15
36664;BME280;53333;51.976;20.144;2023-03-05T00:46:17;99763.69;;;-1.75;57.09
36664;BME280;53333;51.976;20.144;2023-03-05T00:48:50;99761.06;;;-1.76;57.07
36664;BME280;53333;51.976;20.144;2023-03-05T00:51:23;99754.09;;;-1.79;57.08
36664;BME280;53333;51.976;20.144;2023-03-05T00:53:56;99752.38;;;-1.81;57.08
36664;BME280;53333;51.976;20.144;2023-03-05T00:56:29;99748.00;;;-1.84;57.04
36664;BME280;53333;51.976;20.144;2023-03-05T00:59:03;99748.91;;;-1.87;57.17
36664;BME280;53333;51.976;20.144;2023-03-05T01:01:36;99745.41;;;-1.89;57.21
36664;BME280;53333;51.976;20.144;2023-03-05T01:04:08;99738.47;;;-1.91;57.16
36664;BME280;53333;51.976;20.144;2023-03-05T01:06:41;99734.97;;;-1.93;57.12
36664;BME280;53333;51.976;20.144;2023-03-05T01:09:17;99735.84;;;-1.94;57.18
36664;BME280;53333;51.976;20.144;2023-03-05T01:11:50;99731.47;;;-1.95;57.19
36664;BME280;53333;51.976;20.144;2023-03-05T01:14:24;99730.63;;;-1.97;57.10
36664;BME280;53333;51.976;20.144;2023-03-05T01:16:58;99734.13;;;-1.98;56.99
36664;BME280;53333;51.976;20.144;2023-03-05T01:19:30;99731.50;;;-2.00;57.17
36664;BME280;53333;51.976;20.144;2023-03-05T01:22:03;99727.13;;;-2.01;56.99
36664;BME280;53333;51.976;20.144;2023-03-05T01:24:36;99724.50;;;-2.01;57.07
36664;BME280;53333;51.976;20.144;2023-03-05T01:27:09;99722.78;;;-2.01;57.04
36664;BME280;53333;51.976;20.144;2023-03-05T01:29:43;99720.19;;;-2.02;57.05
36664;BME280;53333;51.976;20.144;2023-03-05T01:32:16;99718.41;;;-2.03;56.89
36664;BME280;53333;51.976;20.144;2023-03-05T01:34:49;99715.81;;;-2.03;57.19
36664;BME280;53333;51.976;20.144;2023-03-05T01:37:21;99719.31;;;-2.04;57.09
36664;BME280;53333;51.976;20.144;2023-03-05T01:39:54;99716.69;;;-2.04;57.16
36664;BME280;53333;51.976;20.144;2023-03-05T01:42:27;99716.72;;;-2.06;57.21
36664;BME280;53333;51.976;20.144;2023-03-05T01:45:03;99717.56;;;-2.05;57.03
36664;BME280;53333;51.976;20.144;2023-03-05T01:47:36;99714.09;;;-2.06;57.02
36664;BME280;53333;51.976;20.144;2023-03-05T01:50:11;99714.94;;;-2.05;57.17
36664;BME280;53333;51.976;20.144;2023-03-05T01:52:45;99711.47;;;-2.06;56.96
36664;BME280;53333;51.976;20.144;2023-03-05T01:55:21;99707.09;;;-2.07;57.01
36664;BME280;53333;51.976;20.144;2023-03-05T01:57:55;99711.47;;;-2.09;56.99
36664;BME280;53333;51.976;20.144;2023-03-05T02:00:33;99707.09;;;-2.08;56.97
36664;BME280;53333;51.976;20.144;2023-03-05T02:03:06;99705.34;;;-2.09;56.99
36664;BME280;53333;51.976;20.144;2023-03-05T02:05:40;99699.25;;;-2.10;57.09
36664;BME280;53333;51.976;20.144;2023-03-05T02:08:16;99705.38;;;-2.11;57.00
36664;BME280;53333;51.976;20.144;2023-03-05T02:10:50;99701.03;;;-2.12;56.99
36664;BME280;53333;51.976;20.144;2023-03-05T02:13:27;99698.41;;;-2.13;57.05
36664;BME280;53333;51.976;20.144;2023-03-05T02:16:03;99695.78;;;-2.13;57.30
36664;BME280;53333;51.976;20.144;2023-03-05T02:18:36;99694.91;;;-2.14;57.07
36664;BME280;53333;51.976;20.144;2023-03-05T02:21:11;99693.19;;;-2.13;57.10
36664;BME280;53333;51.976;20.144;2023-03-05T02:23:44;99687.06;;;-2.14;56.95
36664;BME280;53333;51.976;20.144;2023-03-05T02:26:17;99682.72;;;-2.15;57.05
36664;BME280;53333;51.976;20.144;2023-03-05T02:28:51;99673.97;;;-2.14;56.99
36664;BME280;53333;51.976;20.144;2023-03-05T02:31:25;99666.13;;;-2.14;57.03
36664;BME280;53333;51.976;20.144;2023-03-05T02:33:58;99669.63;;;-2.13;57.07
36664;BME280;53333;51.976;20.144;2023-03-05T02:36:32;99673.09;;;-2.13;57.05
36664;BME280;53333;51.976;20.144;2023-03-05T02:39:06;99674.84;;;-2.10;56.99
36664;BME280;53333;51.976;20.144;2023-03-05T02:41:40;99668.72;;;-2.09;57.00
36664;BME280;53333;51.976;20.144;2023-03-05T02:44:13;99669.59;;;-2.09;56.94
36664;BME280;53333;51.976;20.144;2023-03-05T02:46:46;99670.47;;;-2.07;56.87
36664;BME280;53333;51.976;20.144;2023-03-05T02:49:19;99669.59;;;-2.06;56.80
36664;BME280;53333;51.976;20.144;2023-03-05T02:51:53;99668.69;;;-2.06;56.89
36664;BME280;53333;51.976;20.144;2023-03-05T02:54:26;99666.09;;;-2.06;56.90
36664;BME280;53333;51.976;20.144;2023-03-05T02:56:59;99665.22;;;-2.05;56.94
36664;BME280;53333;51.976;20.144;2023-03-05T02:59:32;99659.06;;;-2.01;56.87
36664;BME280;53333;51.976;20.144;2023-03-05T03:02:05;99662.56;;;-1.99;56.73
36664;BME280;53333;51.976;20.144;2023-03-05T03:04:38;99655.56;;;-1.98;56.81
36664;BME280;53333;51.976;20.144;2023-03-05T03:07:12;99647.69;;;-1.95;56.75
36664;BME280;53333;51.976;20.144;2023-03-05T03:09:45;99654.69;;;-1.94;56.69
36664;BME280;53333;51.976;20.144;2023-03-05T03:12:18;99657.31;;;-1.93;56.75
36664;BME280;53333;51.976;20.144;2023-03-05T03:14:51;99652.91;;;-1.91;56.74
36664;BME280;53333;51.976;20.144;2023-03-05T03:17:23;99651.16;;;-1.89;56.80
36664;BME280;53333;51.976;20.144;2023-03-05T03:19:56;99647.66;;;-1.88;56.80
36664;BME280;53333;51.976;20.144;2023-03-05T03:22:30;99643.28;;;-1.87;56.78
36664;BME280;53333;51.976;20.144;2023-03-05T03:25:04;99645.03;;;-1.86;56.76
36664;BME280;53333;51.976;20.144;2023-03-05T03:27:37;99647.66;;;-1.85;56.75
36664;BME280;53333;51.976;20.144;2023-03-05T03:30:10;99640.66;;;-1.86;56.54
36664;BME280;53333;51.976;20.144;2023-03-05T03:32:44;99637.16;;;-1.85;56.68
36664;BME280;53333;51.976;20.144;2023-03-05T03:35:16;99632.81;;;-1.86;56.50
36664;BME280;53333;51.976;20.144;2023-03-05T03:37:51;99632.81;;;-1.86;56.61
36664;BME280;53333;51.976;20.144;2023-03-05T03:40:24;99629.31;;;-1.86;56.68
36664;BME280;53333;51.976;20.144;2023-03-05T03:42:56;99625.84;;;-1.88;56.47
36664;BME280;53333;51.976;20.144;2023-03-05T03:45:29;99623.25;;;-1.90;56.52
36664;BME280;53333;51.976;20.144;2023-03-05T03:48:02;99618.88;;;-1.91;56.63
36664;BME280;53333;51.976;20.144;2023-03-05T03:50:37;99617.13;;;-1.92;56.73
36664;BME280;53333;51.976;20.144;2023-03-05T03:53:11;99616.28;;;-1.92;56.77
36664;BME280;53333;51.976;20.144;2023-03-05T03:55:44;99618.88;;;-1.92;56.80
36664;BME280;53333;51.976;20.144;2023-03-05T03:58:17;99619.75;;;-1.93;56.87
36664;BME280;53333;51.976;20.144;2023-03-05T04:00:50;99616.28;;;-1.94;56.74
36664;BME280;53333;51.976;20.144;2023-03-05T04:03:23;99614.53;;;-1.93;56.81
36664;BME280;53333;51.976;20.144;2023-03-05T04:05:56;99611.03;;;-1.92;56.74
36664;BME280;53333;51.976;20.144;2023-03-05T04:08:30;99608.41;;;-1.92;56.73
36664;BME280;53333;51.976;20.144;2023-03-05T04:11:03;99611.88;;;-1.90;56.68
36664;BME280;53333;51.976;20.144;2023-03-05T04:13:36;99606.66;;;-1.90;56.61
36664;BME280;53333;51.976;20.144;2023-03-05T04:16:08;99602.28;;;-1.90;56.70
36664;BME280;53333;51.976;20.144;2023-03-05T04:18:41;99603.16;;;-1.89;56.72
36664;BME280;53333;51.976;20.144;2023-03-05T04:21:14;99598.78;;;-1.87;56.71
36664;BME280;53333;51.976;20.144;2023-03-05T04:23:49;99595.28;;;-1.86;56.63
36664;BME280;53333;51.976;20.144;2023-03-05T04:26:21;99591.75;;;-1.84;56.69
36664;BME280;53333;51.976;20.144;2023-03-05T04:28:54;99595.25;;;-1.80;56.65
36664;BME280;53333;51.976;20.144;2023-03-05T04:31:27;99589.97;;;-1.77;56.56
36664;BME280;53333;51.976;20.144;2023-03-05T04:34:00;99572.50;;;-1.76;56.61
36664;BME280;53333;51.976;20.144;2023-03-05T04:36:33;99575.09;;;-1.73;56.58
36664;BME280;53333;51.976;20.144;2023-03-05T04:39:07;99578.59;;;-1.74;56.56
36664;BME280;53333;51.976;20.144;2023-03-05T04:41:40;99564.66;;;-1.75;56.54
36664;BME280;53333;51.976;20.144;2023-03-05T04:44:12;99569.03;;;-1.77;56.61
36664;BME280;53333;51.976;20.144;2023-03-05T04:46:45;99567.28;;;-1.78;56.63
36664;BME280;53333;51.976;20.144;2023-03-05T04:49:18;99565.53;;;-1.77;56.54
36664;BME280;53333;51.976;20.144;2023-03-05T04:51:51;99568.16;;;-1.77;56.59
36664;BME280;53333;51.976;20.144;2023-03-05T04:54:25;99558.56;;;-1.78;56.49
36664;BME280;53333;51.976;20.144;2023-03-05T04:56:58;99560.28;;;-1.79;56.47
36664;BME280;53333;51.976;20.144;2023-03-05T04:59:31;99551.59;;;-1.79;56.58
36664;BME280;53333;51.976;20.144;2023-03-05T05:02:04;99553.34;;;-1.81;56.52
36664;BME280;53333;51.976;20.144;2023-03-05T05:04:37;99556.84;;;-1.84;56.42
36664;BME280;53333;51.976;20.144;2023-03-05T05:07:10;99554.25;;;-1.86;56.49
36664;BME280;53333;51.976;20.144;2023-03-05T05:09:45;99550.78;;;-1.88;56.52
36664;BME280;53333;51.976;20.144;2023-03-05T05:12:17;99556.88;;;-1.89;56.59
36664;BME280;53333;51.976;20.144;2023-03-05T05:14:50;99554.25;;;-1.89;56.55
36664;BME280;53333;51.976;20.144;2023-03-05T05:17:23;99541.19;;;-1.89;56.65
36664;BME280;53333;51.976;20.144;2023-03-05T05:19:56;99543.78;;;-1.87;56.62
36664;BME280;53333;51.976;20.144;2023-03-05T05:22:29;99533.31;;;-1.87;56.59
36664;BME280;53333;51.976;20.144;2023-03-05T05:25:03;99549.03;;;-1.87;56.61
36664;BME280;53333;51.976;20.144;2023-03-05T05:27:36;99539.44;;;-1.87;56.56
36664;BME280;53333;51.976;20.144;2023-03-05T05:30:09;99538.53;;;-1.87;56.58
36664;BME280;53333;51.976;20.144;2023-03-05T05:32:42;99535.94;;;-1.87;56.54
36664;BME280;53333;51.976;20.144;2023-03-05T05:35:15;99542.06;;;-1.87;56.47
36664;BME280;53333;51.976;20.144;2023-03-05T05:37:48;99542.06;;;-1.87;56.56
36664;BME280;53333;51.976;20.144;2023-03-05T05:40:22;99539.44;;;-1.87;56.56
36664;BME280;53333;51.976;20.144;2023-03-05T05:42:55;99541.16;;;-1.86;56.47
36664;BME280;53333;51.976;20.144;2023-03-05T05:45:28;99542.00;;;-1.85;56.50
36664;BME280;53333;51.976;20.144;2023-03-05T05:48:01;99544.63;;;-1.84;56.40
36664;BME280;53333;51.976;20.144;2023-03-05T05:50:34;99546.38;;;-1.84;56.39
36664;BME280;53333;51.976;20.144;2023-03-05T05:53:08;99535.03;;;-1.83;56.49
36664;BME280;53333;51.976;20.144;2023-03-05T05:55:43;99536.75;;;-1.80;56.40
36664;BME280;53333;51.976;20.144;2023-03-05T05:58:15;99525.38;;;-1.76;56.38
36664;BME280;53333;51.976;20.144;2023-03-05T06:00:48;99524.47;;;-1.71;56.38
36664;BME280;53333;51.976;20.144;2023-03-05T06:03:21;99525.25;;;-1.62;56.33
36664;BME280;53333;51.976;20.144;2023-03-05T06:05:54;99533.00;;;-1.55;56.25
36664;BME280;53333;51.976;20.144;2023-03-05T06:08:27;99530.31;;;-1.46;56.22
36664;BME280;53333;51.976;20.144;2023-03-05T06:11:01;99534.59;;;-1.34;56.04
36664;BME280;53333;51.976;20.144;2023-03-05T06:13:34;99540.56;;;-1.19;56.01
36664;BME280;53333;51.976;20.144;2023-03-05T06:16:07;99537.75;;;-1.04;55.76
36664;BME280;53333;51.976;20.144;2023-03-05T06:18:41;99534.03;;;-0.83;55.78
36664;BME280;53333;51.976;20.144;2023-03-05T06:21:15;99518.78;;;-0.56;55.59
36664;BME280;53333;51.976;20.144;2023-03-05T06:23:48;99505.28;;;-0.28;55.31
36664;BME280;53333;51.976;20.144;2023-03-05T06:26:23;99492.59;;;0.00;55.17
36664;BME280;53333;51.976;20.144;2023-03-05T06:28:56;99503.53;;;0.27;54.92
36664;BME280;53333;51.976;20.144;2023-03-05T06:31:29;99516.28;;;0.50;54.73
36664;BME280;53333;51.976;20.144;2023-03-05T06:34:02;99511.66;;;0.63;54.73
36664;BME280;53333;51.976;20.144;2023-03-05T06:36:35;99512.47;;;0.66;54.64
36664;BME280;53333;51.976;20.144;2023-03-05T06:39:07;99500.19;;;0.65;54.82
36664;BME280;53333;51.976;20.144;2023-03-05T06:41:42;99494.16;;;0.60;54.91
36664;BME280;53333;51.976;20.144;2023-03-05T06:44:15;99489.06;;;0.52;54.95
36664;BME280;53333;51.976;20.144;2023-03-05T06:46:47;99474.28;;;0.47;54.97
36664;BME280;53333;51.976;20.144;2023-03-05T06:49:22;99486.66;;;0.42;55.17
36664;BME280;53333;51.976;20.144;2023-03-05T06:51:57;99498.09;;;0.38;55.28
36664;BME280;53333;51.976;20.144;2023-03-05T06:54:30;99499.00;;;0.35;55.31
36664;BME280;53333;51.976;20.144;2023-03-05T06:57:04;99500.81;;;0.31;55.22
36664;BME280;53333;51.976;20.144;2023-03-05T07:02:11;99495.66;;;0.27;55.38
36664;BME280;53333;51.976;20.144;2023-03-05T07:04:44;99496.53;;;0.27;55.34
36664;BME280;53333;51.976;20.144;2023-03-05T07:07:17;99494.72;;;0.29;55.43
36664;BME280;53333;51.976;20.144;2023-03-05T07:09:50;99492.03;;;0.34;55.30
36664;BME280;53333;51.976;20.144;2023-03-05T07:12:25;99488.44;;;0.38;55.23
36664;BME280;53333;51.976;20.144;2023-03-05T07:14:58;99483.97;;;0.45;55.31
36664;BME280;53333;51.976;20.144;2023-03-05T07:17:31;99472.44;;;0.50;55.19
36664;BME280;53333;51.976;20.144;2023-03-05T07:20:04;99475.84;;;0.56;55.20
36664;BME280;53333;51.976;20.144;2023-03-05T07:22:38;99469.66;;;0.60;55.15
36664;BME280;53333;51.976;20.144;2023-03-05T07:25:11;99469.59;;;0.63;55.08
36664;BME280;53333;51.976;20.144;2023-03-05T07:27:45;99463.41;;;0.65;55.06
36664;BME280;53333;51.976;20.144;2023-03-05T07:30:18;99465.91;;;0.71;54.96
36664;BME280;53333;51.976;20.144;2023-03-05T07:32:51;99455.34;;;0.75;54.92
36664;BME280;53333;51.976;20.144;2023-03-05T07:35:24;99452.59;;;0.81;55.05
36664;BME280;53333;51.976;20.144;2023-03-05T07:37:57;99458.59;;;0.87;54.92
36664;BME280;53333;51.976;20.144;2023-03-05T07:40:30;99457.66;;;0.90;54.88
36664;BME280;53333;51.976;20.144;2023-03-05T07:43:04;99451.50;;;0.93;54.90
36664;BME280;53333;51.976;20.144;2023-03-05T07:45:38;99448.81;;;0.94;55.00
36664;BME280;53333;51.976;20.144;2023-03-05T07:48:12;99445.31;;;0.94;54.87
36664;BME280;53333;51.976;20.144;2023-03-05T07:50:46;99450.63;;;0.90;55.04
36664;BME280;53333;51.976;20.144;2023-03-05T07:53:19;99450.66;;;0.89;55.10
36664;BME280;53333;51.976;20.144;2023-03-05T07:55:52;99448.91;;;0.91;55.00
36664;BME280;53333;51.976;20.144;2023-03-05T07:58:26;99457.63;;;0.92;55.07
36664;BME280;53333;51.976;20.144;2023-03-05T08:00:59;99453.22;;;0.94;55.13
36664;BME280;53333;51.976;20.144;2023-03-05T08:03:31;99455.72;;;1.00;54.96
36664;BME280;53333;51.976;20.144;2023-03-05T08:06:04;99440.66;;;1.06;54.92
36664;BME280;53333;51.976;20.144;2023-03-05T08:08:37;99451.88;;;1.15;54.98
36664;BME280;53333;51.976;20.144;2023-03-05T08:11:11;99443.81;;;1.22;54.93
36664;BME280;53333;51.976;20.144;2023-03-05T08:13:45;99448.09;;;1.28;54.90
36664;BME280;53333;51.976;20.144;2023-03-05T08:16:19;99455.00;;;1.32;54.79
36664;BME280;53333;51.976;20.144;2023-03-05T08:18:52;99444.41;;;1.35;54.74
36664;BME280;53333;51.976;20.144;2023-03-05T08:21:26;99447.88;;;1.39;54.81
36664;BME280;53333;51.976;20.144;2023-03-05T08:24:00;99449.59;;;1.40;54.80
36664;BME280;53333;51.976;20.144;2023-03-05T08:26:34;99445.16;;;1.40;54.90
36664;BME280;53333;51.976;20.144;2023-03-05T08:29:09;99446.97;;;1.38;54.87
36664;BME280;53333;51.976;20.144;2023-03-05T08:31:44;99442.69;;;1.36;54.90
36664;BME280;53333;51.976;20.144;2023-03-05T08:34:16;99436.59;;;1.32;54.92
36664;BME280;53333;51.976;20.144;2023-03-05T08:36:49;99440.16;;;1.31;54.98
36664;BME280;53333;51.976;20.144;2023-03-05T08:39:22;99434.06;;;1.27;55.00
36664;BME280;53333;51.976;20.144;2023-03-05T08:41:55;99433.19;;;1.27;55.09
36664;BME280;53333;51.976;20.144;2023-03-05T08:44:29;99421.78;;;1.28;55.10
36664;BME280;53333;51.976;20.144;2023-03-05T08:47:02;99423.50;;;1.29;54.90
36664;BME280;53333;51.976;20.144;2023-03-05T08:49:35;99418.31;;;1.26;54.97
36664;BME280;53333;51.976;20.144;2023-03-05T08:52:08;99416.56;;;1.26;55.07
36664;BME280;53333;51.976;20.144;2023-03-05T08:54:41;99419.16;;;1.28;54.97
36664;BME280;53333;51.976;20.144;2023-03-05T08:57:14;99416.53;;;1.28;54.96
36664;BME280;53333;51.976;20.144;2023-03-05T08:59:48;99416.50;;;1.30;55.01
36664;BME280;53333;51.976;20.144;2023-03-05T09:02:21;99407.69;;;1.31;54.97
36664;BME280;53333;51.976;20.144;2023-03-05T09:04:53;99411.22;;;1.30;55.05
36664;BME280;53333;51.976;20.144;2023-03-05T09:07:26;99407.69;;;1.31;55.01
36664;BME280;53333;51.976;20.144;2023-03-05T09:09:59;99406.72;;;1.35;55.03
36664;BME280;53333;51.976;20.144;2023-03-05T09:12:32;99407.56;;;1.35;55.00
36664;BME280;53333;51.976;20.144;2023-03-05T09:15:07;99410.09;;;1.40;54.66
36664;BME280;53333;51.976;20.144;2023-03-05T09:17:40;99406.53;;;1.42;54.85
36664;BME280;53333;51.976;20.144;2023-03-05T09:20:13;99408.25;;;1.43;54.95
36664;BME280;53333;51.976;20.144;2023-03-05T09:22:46;99403.88;;;1.44;54.91
36664;BME280;53333;51.976;20.144;2023-03-05T09:25:19;99397.66;;;1.47;54.81
36664;BME280;53333;51.976;20.144;2023-03-05T09:27:53;99407.25;;;1.49;54.93
36664;BME280;53333;51.976;20.144;2023-03-05T09:30:31;99405.44;;;1.51;54.85
36664;BME280;53333;51.976;20.144;2023-03-05T09:33:05;99408.03;;;1.53;54.84
36664;BME280;53333;51.976;20.144;2023-03-05T09:35:38;99396.66;;;1.52;54.78
36664;BME280;53333;51.976;20.144;2023-03-05T09:38:11;99406.34;;;1.52;54.85
36664;BME280;53333;51.976;20.144;2023-03-05T09:40:46;99397.50;;;1.53;54.85
36664;BME280;53333;51.976;20.144;2023-03-05T09:43:24;99402.72;;;1.56;54.93
36664;BME280;53333;51.976;20.144;2023-03-05T09:46:05;99397.41;;;1.57;54.81
36664;BME280;53333;51.976;20.144;2023-03-05T09:48:49;99399.94;;;1.62;54.59
36664;BME280;53333;51.976;20.144;2023-03-05T09:51:23;99395.50;;;1.64;54.73
36664;BME280;53333;51.976;20.144;2023-03-05T09:53:58;99398.03;;;1.67;54.72
36664;BME280;53333;51.976;20.144;2023-03-05T09:56:34;99392.66;;;1.72;54.79
36664;BME280;53333;51.976;20.144;2023-03-05T09:59:13;99396.13;;;1.74;54.68
36664;BME280;53333;51.976;20.144;2023-03-05T10:01:50;99391.88;;;1.68;54.67
36664;BME280;53333;51.976;20.144;2023-03-05T10:04:25;99391.28;;;1.57;54.82
36664;BME280;53333;51.976;20.144;2023-03-05T10:07:00;99394.06;;;1.51;54.95
36664;BME280;53333;51.976;20.144;2023-03-05T10:09:41;99387.13;;;1.47;54.96
36664;BME280;53333;51.976;20.144;2023-03-05T10:12:17;99392.34;;;1.48;55.07
36664;BME280;53333;51.976;20.144;2023-03-05T10:14:53;99383.56;;;1.49;54.96
36664;BME280;53333;51.976;20.144;2023-03-05T10:17:43;99385.41;;;1.45;54.99
36664;BME280;53333;51.976;20.144;2023-03-05T10:23:36;99379.59;;;1.33;54.98
36664;BME280;53333;51.976;20.144;2023-03-05T10:26:24;99378.84;;;1.26;55.18
36664;BME280;53333;51.976;20.144;2023-03-05T10:29:06;99370.97;;;1.24;55.22
36664;BME280;53333;51.976;20.144;2023-03-05T10:31:53;99373.81;;;1.17;55.20
36664;BME280;53333;51.976;20.144;2023-03-05T10:34:49;99374.75;;;1.13;55.23
36664;BME280;53333;51.976;20.144;2023-03-05T10:40:28;99363.53;;;1.06;55.17
36664;BME280;53333;51.976;20.144;2023-03-05T10:43:06;99362.69;;;1.04;55.25
36664;BME280;53333;51.976;20.144;2023-03-05T10:45:46;99354.84;;;1.02;55.18
36664;BME280;53333;51.976;20.144;2023-03-05T10:48:24;99356.59;;;1.02;55.24
36664;BME280;53333;51.976;20.144;2023-03-05T10:51:00;99353.97;;;1.00;55.18
36664;BME280;53333;51.976;20.144;2023-03-05T10:53:37;99353.09;;;1.01;55.10
36664;BME280;53333;51.976;20.144;2023-03-05T10:56:16;99351.28;;;1.03;55.04
36664;BME280;53333;51.976;20.144;2023-03-05T10:58:51;99352.03;;;1.08;54.99
36664;BME280;53333;51.976;20.144;2023-03-05T11:01:24;99350.19;;;1.14;54.97
36664;BME280;53333;51.976;20.144;2023-03-05T11:03:59;99348.34;;;1.17;55.09
36664;BME280;53333;51.976;20.144;2023-03-05T11:06:34;99342.03;;;1.24;54.95
36664;BME280;53333;51.976;20.144;2023-03-05T11:09:21;99336.59;;;1.32;54.78
36664;BME280;53333;51.976;20.144;2023-03-05T11:12:03;99339.00;;;1.41;54.77
36664;BME280;53333;51.976;20.144;2023-03-05T11:14:37;99334.47;;;1.47;54.63
36664;BME280;53333;51.976;20.144;2023-03-05T11:28:24;99305.78;;;1.72;54.44
36664;BME280;53333;51.976;20.144;2023-03-05T11:31:05;99302.13;;;1.77;54.40
36664;BME280;53333;51.976;20.144;2023-03-05T11:33:39;99302.06;;;1.80;54.52
36664;BME280;53333;51.976;20.144;2023-03-05T11:36:26;99296.72;;;1.84;54.51
36664;BME280;53333;51.976;20.144;2023-03-05T11:39:09;99297.41;;;1.90;54.41
36664;BME280;53333;51.976;20.144;2023-03-05T11:41:43;99300.66;;;2.00;54.45
36664;BME280;53333;51.976;20.144;2023-03-05T11:44:19;99288.19;;;2.05;54.23
36664;BME280;53333;51.976;20.144;2023-03-05T11:46:54;99281.03;;;2.10;54.27
36664;BME280;53333;51.976;20.144;2023-03-05T11:49:28;99282.56;;;2.19;54.32
36664;BME280;53333;51.976;20.144;2023-03-05T11:52:06;99278.88;;;2.25;54.17
36664;BME280;53333;51.976;20.144;2023-03-05T11:54:41;99273.47;;;2.29;54.12
36664;BME280;53333;51.976;20.144;2023-03-05T11:57:19;99268.97;;;2.33;54.17
36664;BME280;53333;51.976;20.144;2023-03-05T11:59:56;99267.16;;;2.35;54.17
36664;BME280;53333;51.976;20.144;2023-03-05T12:02:30;99264.44;;;2.38;54.17
36664;BME280;53333;51.976;20.144;2023-03-05T12:05:04;99260.81;;;2.41;54.20
36664;BME280;53333;51.976;20.144;2023-03-05T12:07:39;99254.66;;;2.42;54.13
36664;BME280;53333;51.976;20.144;2023-03-05T12:10:14;99247.56;;;2.44;54.09
36664;BME280;53333;51.976;20.144;2023-03-05T12:12:50;99250.19;;;2.44;54.20
36664;BME280;53333;51.976;20.144;2023-03-05T12:15:43;99248.50;;;2.43;54.22
36664;BME280;53333;51.976;20.144;2023-03-05T12:18:22;99243.16;;;2.44;54.10
36664;BME280;53333;51.976;20.144;2023-03-05T12:21:05;99247.41;;;2.48;54.11
36664;BME280;53333;51.976;20.144;2023-03-05T12:23:45;99250.06;;;2.48;54.22
36664;BME280;53333;51.976;20.144;2023-03-05T12:26:25;99243.16;;;2.44;54.15
36664;BME280;53333;51.976;20.144;2023-03-05T12:29:27;99244.91;;;2.44;54.26
36664;BME280;53333;51.976;20.144;2023-03-05T12:32:02;99237.91;;;2.44;54.17
36664;BME280;53333;51.976;20.144;2023-03-05T12:34:45;99248.41;;;2.46;54.17
36664;BME280;53333;51.976;20.144;2023-03-05T12:40:21;99241.53;;;2.40;54.28
36664;BME280;53333;51.976;20.144;2023-03-05T12:42:55;99241.53;;;2.40;54.31
36664;BME280;53333;51.976;20.144;2023-03-05T12:45:32;99241.63;;;2.37;54.28
36664;BME280;53333;51.976;20.144;2023-03-05T12:50:58;99240.81;;;2.35;54.29
36664;BME280;53333;51.976;20.144;2023-03-05T12:53:31;99242.59;;;2.33;54.30
36664;BME280;53333;51.976;20.144;2023-03-05T12:56:04;99240.88;;;2.32;54.37
36664;BME280;53333;51.976;20.144;2023-03-05T12:58:46;99235.63;;;2.32;54.35
36664;BME280;53333;51.976;20.144;2023-03-05T13:01:26;99244.41;;;2.31;54.36
36664;BME280;53333;51.976;20.144;2023-03-05T13:04:01;99241.03;;;2.27;54.43
36664;BME280;53333;51.976;20.144;2023-03-05T13:06:42;99241.97;;;2.25;54.39
36664;BME280;53333;51.976;20.144;2023-03-05T13:09:19;99245.63;;;2.21;54.49
36664;BME280;53333;51.976;20.144;2023-03-05T13:11:54;99249.22;;;2.16;54.46
36664;BME280;53333;51.976;20.144;2023-03-05T13:14:33;99251.06;;;2.14;54.55
36664;BME280;53333;51.976;20.144;2023-03-05T13:17:32;99248.47;;;2.13;54.49
36664;BME280;53333;51.976;20.144;2023-03-05T13:20:26;99248.44;;;2.14;54.46
36664;BME280;53333;51.976;20.144;2023-03-05T13:23:17;99248.34;;;2.17;54.51
36664;BME280;53333;51.976;20.144;2023-03-05T13:25:59;99244.69;;;2.22;54.42
36664;BME280;53333;51.976;20.144;2023-03-05T13:28:32;99246.34;;;2.26;54.25
36664;BME280;53333;51.976;20.144;2023-03-05T13:31:10;99248.84;;;2.30;54.24
36664;BME280;53333;51.976;20.144;2023-03-05T13:33:50;99246.06;;;2.35;54.35
36664;BME280;53333;51.976;20.144;2023-03-05T13:36:25;99242.34;;;2.42;54.18
36664;BME280;53333;51.976;20.144;2023-03-05T13:38:59;99240.59;;;2.43;54.28
36664;BME280;53333;51.976;20.144;2023-03-05T13:41:34;99242.28;;;2.44;54.23
36664;BME280;53333;51.976;20.144;2023-03-05T13:44:16;99240.44;;;2.47;54.21
36664;BME280;53333;51.976;20.144;2023-03-05T13:46:52;99242.06;;;2.51;54.26
36664;BME280;53333;51.976;20.144;2023-03-05T13:49:25;99236.69;;;2.54;54.21
36664;BME280;53333;51.976;20.144;2023-03-05T13:51:59;99242.78;;;2.57;54.14
36664;BME280;53333;51.976;20.144;2023-03-05T13:54:33;99236.59;;;2.58;54.25
36664;BME280;53333;51.976;20.144;2023-03-05T13:57:28;99236.56;;;2.59;54.19
36664;BME280;53333;51.976;20.144;2023-03-05T14:00:05;99235.75;;;2.57;54.11